sensor_id;sensor_type;location;lat;lon;timestamp;temperature;humidity
69436;SHT31;56625;54.322;18.582;2023-04-06T00:02:27;-0.07;80.73
69436;SHT31;56625;54.322;18.582;2023-04-06T00:04:55;-0.05;80.48
69436;SHT31;56625;54.322;18.582;2023-04-06T00:07:23;-0.05;80.38
69436;SHT31;56625;54.322;18.582;2023-04-06T00:09:51;-0.05;80.36
69436;SHT31;56625;54.322;18.582;2023-04-06T00:12:18;-0.04;80.37
69436;SHT31;56625;54.322;18.582;2023-04-06T00:14:46;-0.01;80.49
69436;SHT31;56625;54.322;18.582;2023-04-06T00:17:14;0.01;80.41
69436;SHT31;56625;54.322;18.582;2023-04-06T00:19:42;0.02;80.39
69436;SHT31;56625;54.322;18.582;2023-04-06T00:22:10;0.07;80.60
69436;SHT31;56625;54.322;18.582;2023-04-06T00:24:38;0.10;80.40
69436;SHT31;56625;54.322;18.582;2023-04-06T00:27:06;0.09;80.17
69436;SHT31;56625;54.322;18.582;2023-04-06T00:29:34;0.05;80.10
69436;SHT31;56625;54.322;18.582;2023-04-06T00:32:02;0.05;80.42
69436;SHT31;56625;54.322;18.582;2023-04-06T00:34:30;0.09;80.60
69436;SHT31;56625;54.322;18.582;2023-04-06T00:36:58;0.13;80.71
69436;SHT31;56625;54.322;18.582;2023-04-06T00:39:26;0.22;81.20
69436;SHT31;56625;54.322;18.582;2023-04-06T00:41:55;0.30;81.14
69436;SHT31;56625;54.322;18.582;2023-04-06T00:44:24;0.39;81.20
69436;SHT31;56625;54.322;18.582;2023-04-06T00:46:52;0.43;80.89
69436;SHT31;56625;54.322;18.582;2023-04-06T00:49:20;0.38;80.39
69436;SHT31;56625;54.322;18.582;2023-04-06T00:51:48;0.36;80.44
69436;SHT31;56625;54.322;18.582;2023-04-06T00:54:16;0.33;80.23
69436;SHT31;56625;54.322;18.582;2023-04-06T00:56:44;0.22;79.71
69436;SHT31;56625;54.322;18.582;2023-04-06T00:59:12;0.17;79.97
69436;SHT31;56625;54.322;18.582;2023-04-06T01:01:40;0.18;80.32
69436;SHT31;56625;54.322;18.582;2023-04-06T01:04:08;0.22;80.39
69436;SHT31;56625;54.322;18.582;2023-04-06T01:06:36;0.12;79.76
69436;SHT31;56625;54.322;18.582;2023-04-06T01:09:04;0.03;79.58
69436;SHT31;56625;54.322;18.582;2023-04-06T01:11:32;-0.05;79.61
69436;SHT31;56625;54.322;18.582;2023-04-06T01:14:00;-0.11;79.91
69436;SHT31;56625;54.322;18.582;2023-04-06T01:16:28;-0.13;80.05
69436;SHT31;56625;54.322;18.582;2023-04-06T01:18:56;-0.13;80.33
69436;SHT31;56625;54.322;18.582;2023-04-06T01:21:24;-0.09;80.50
69436;SHT31;56625;54.322;18.582;2023-04-06T01:23:52;-0.09;80.42
69436;SHT31;56625;54.322;18.582;2023-04-06T01:26:20;-0.08;80.45
69436;SHT31;56625;54.322;18.582;2023-04-06T01:28:48;-0.07;80.73
69436;SHT31;56625;54.322;18.582;2023-04-06T01:31:16;-0.09;80.35
69436;SHT31;56625;54.322;18.582;2023-04-06T01:33:44;-0.10;80.53
69436;SHT31;56625;54.322;18.582;2023-04-06T01:36:12;-0.06;80.84
69436;SHT31;56625;54.322;18.582;2023-04-06T01:38:41;-0.03;80.83
69436;SHT31;56625;54.322;18.582;2023-04-06T01:41:09;0.03;81.24
69436;SHT31;56625;54.322;18.582;2023-04-06T01:43:38;0.06;81.16
69436;SHT31;56625;54.322;18.582;2023-04-06T01:46:06;-0.02;80.33
69436;SHT31;56625;54.322;18.582;2023-04-06T01:48:34;-0.15;79.92
69436;SHT31;56625;54.322;18.582;2023-04-06T01:51:01;-0.19;80.42
69436;SHT31;56625;54.322;18.582;2023-04-06T01:53:30;-0.17;80.81
69436;SHT31;56625;54.322;18.582;2023-04-06T01:55:57;-0.19;80.60
69436;SHT31;56625;54.322;18.582;2023-04-06T01:58:25;-0.24;80.49
69436;SHT31;56625;54.322;18.582;2023-04-06T02:00:53;-0.22;80.99
69436;SHT31;56625;54.322;18.582;2023-04-06T02:03:22;-0.22;80.95
69436;SHT31;56625;54.322;18.582;2023-04-06T02:05:49;-0.24;80.89
69436;SHT31;56625;54.322;18.582;2023-04-06T02:08:17;-0.29;80.51
69436;SHT31;56625;54.322;18.582;2023-04-06T02:10:45;-0.41;80.14
69436;SHT31;56625;54.322;18.582;2023-04-06T02:13:13;-0.43;80.58
69436;SHT31;56625;54.322;18.582;2023-04-06T02:15:41;-0.41;81.02
69436;SHT31;56625;54.322;18.582;2023-04-06T02:18:09;-0.41;80.96
69436;SHT31;56625;54.322;18.582;2023-04-06T02:20:37;-0.49;80.63
69436;SHT31;56625;54.322;18.582;2023-04-06T02:23:05;-0.56;80.51
69436;SHT31;56625;54.322;18.582;2023-04-06T02:25:33;-0.64;80.46
69436;SHT31;56625;54.322;18.582;2023-04-06T02:28:01;-0.64;80.91
69436;SHT31;56625;54.322;18.582;2023-04-06T02:30:29;-0.65;80.93
69436;SHT31;56625;54.322;18.582;2023-04-06T02:32:57;-0.67;80.96
69436;SHT31;56625;54.322;18.582;2023-04-06T02:35:25;-0.75;80.59
69436;SHT31;56625;54.322;18.582;2023-04-06T02:37:53;-0.84;80.47
69436;SHT31;56625;54.322;18.582;2023-04-06T02:40:21;-0.87;80.86
69436;SHT31;56625;54.322;18.582;2023-04-06T02:42:49;-0.84;81.21
69436;SHT31;56625;54.322;18.582;2023-04-06T02:45:16;-0.86;81.17
69436;SHT31;56625;54.322;18.582;2023-04-06T02:47:44;-0.81;81.61
69436;SHT31;56625;54.322;18.582;2023-04-06T02:50:12;-0.74;81.89
69436;SHT31;56625;54.322;18.582;2023-04-06T02:52:41;-0.72;81.77
69436;SHT31;56625;54.322;18.582;2023-04-06T02:55:09;-0.84;80.81
69436;SHT31;56625;54.322;18.582;2023-04-06T02:57:36;-0.95;80.66
69436;SHT31;56625;54.322;18.582;2023-04-06T03:00:04;-0.96;81.14
69436;SHT31;56625;54.322;18.582;2023-04-06T03:02:34;-1.02;80.71
69436;SHT31;56625;54.322;18.582;2023-04-06T03:05:02;-1.11;80.47
69436;SHT31;56625;54.322;18.582;2023-04-06T03:07:31;-1.20;80.33
69436;SHT31;56625;54.322;18.582;2023-04-06T03:09:59;-1.29;80.41
69436;SHT31;56625;54.322;18.582;2023-04-06T03:12:26;-1.36;80.53
69436;SHT31;56625;54.322;18.582;2023-04-06T03:14:54;-1.42;80.74
69436;SHT31;56625;54.322;18.582;2023-04-06T03:17:22;-1.47;80.94
69436;SHT31;56625;54.322;18.582;2023-04-06T03:19:50;-1.49;81.07
69436;SHT31;56625;54.322;18.582;2023-04-06T03:22:19;-1.51;81.16
69436;SHT31;56625;54.322;18.582;2023-04-06T03:24:47;-1.55;81.20
69436;SHT31;56625;54.322;18.582;2023-04-06T03:27:15;-1.59;81.23
69436;SHT31;56625;54.322;18.582;2023-04-06T03:29:43;-1.62;81.31
69436;SHT31;56625;54.322;18.582;2023-04-06T03:32:11;-1.61;81.48
69436;SHT31;56625;54.322;18.582;2023-04-06T03:34:39;-1.61;81.43
69436;SHT31;56625;54.322;18.582;2023-04-06T03:37:07;-1.61;81.43
69436;SHT31;56625;54.322;18.582;2023-04-06T03:39:37;-1.61;81.40
69436;SHT31;56625;54.322;18.582;2023-04-06T03:42:05;-1.63;81.40
69436;SHT31;56625;54.322;18.582;2023-04-06T03:44:32;-1.63;81.37
69436;SHT31;56625;54.322;18.582;2023-04-06T03:47:00;-1.66;81.30
69436;SHT31;56625;54.322;18.582;2023-04-06T03:49:29;-1.69;81.30
69436;SHT31;56625;54.322;18.582;2023-04-06T03:51:57;-1.70;81.32
69436;SHT31;56625;54.322;18.582;2023-04-06T03:54:25;-1.70;81.31
69436;SHT31;56625;54.322;18.582;2023-04-06T03:56:53;-1.72;81.27
69436;SHT31;56625;54.322;18.582;2023-04-06T03:59:21;-1.74;81.20
69436;SHT31;56625;54.322;18.582;2023-04-06T04:01:49;-1.77;81.20
69436;SHT31;56625;54.322;18.582;2023-04-06T04:04:17;-1.80;81.23
69436;SHT31;56625;54.322;18.582;2023-04-06T04:06:45;-1.84;81.21
69436;SHT31;56625;54.322;18.582;2023-04-06T04:09:13;-1.87;81.29
69436;SHT31;56625;54.322;18.582;2023-04-06T04:11:41;-1.88;81.51
69436;SHT31;56625;54.322;18.582;2023-04-06T04:14:08;-1.92;81.66
69436;SHT31;56625;54.322;18.582;2023-04-06T04:16:36;-1.94;82.01
69436;SHT31;56625;54.322;18.582;2023-04-06T04:19:07;-1.93;82.16
69436;SHT31;56625;54.322;18.582;2023-04-06T04:21:42;-1.94;82.16
69436;SHT31;56625;54.322;18.582;2023-04-06T04:24:13;-1.91;82.58
69436;SHT31;56625;54.322;18.582;2023-04-06T04:26:42;-1.86;82.77
69436;SHT31;56625;54.322;18.582;2023-04-06T04:29:09;-1.82;82.70
69436;SHT31;56625;54.322;18.582;2023-04-06T04:31:37;-1.78;82.66
69436;SHT31;56625;54.322;18.582;2023-04-06T04:34:05;-1.78;82.62
69436;SHT31;56625;54.322;18.582;2023-04-06T04:36:34;-1.73;82.62
69436;SHT31;56625;54.322;18.582;2023-04-06T04:39:02;-1.70;82.57
69436;SHT31;56625;54.322;18.582;2023-04-06T04:41:30;-1.64;82.46
69436;SHT31;56625;54.322;18.582;2023-04-06T04:43:58;-1.59;82.37
69436;SHT31;56625;54.322;18.582;2023-04-06T04:46:26;-1.52;82.31
69436;SHT31;56625;54.322;18.582;2023-04-06T04:48:55;-1.47;82.29
69436;SHT31;56625;54.322;18.582;2023-04-06T04:51:23;-1.32;82.30
69436;SHT31;56625;54.322;18.582;2023-04-06T04:53:52;-1.17;82.19
69436;SHT31;56625;54.322;18.582;2023-04-06T04:56:20;-1.06;81.97
69436;SHT31;56625;54.322;18.582;2023-04-06T04:58:48;-0.90;81.85
69436;SHT31;56625;54.322;18.582;2023-04-06T05:01:16;-0.76;81.35
69436;SHT31;56625;54.322;18.582;2023-04-06T05:03:43;-0.65;81.08
69436;SHT31;56625;54.322;18.582;2023-04-06T05:06:12;-0.46;81.01
69436;SHT31;56625;54.322;18.582;2023-04-06T05:08:40;-0.29;80.65
69436;SHT31;56625;54.322;18.582;2023-04-06T05:11:09;-0.17;80.14
69436;SHT31;56625;54.322;18.582;2023-04-06T05:13:37;-0.08;79.84
69436;SHT31;56625;54.322;18.582;2023-04-06T05:16:05;0.02;79.62
69436;SHT31;56625;54.322;18.582;2023-04-06T05:18:34;0.10;79.35
69436;SHT31;56625;54.322;18.582;2023-04-06T05:21:02;0.15;79.10
69436;SHT31;56625;54.322;18.582;2023-04-06T05:23:30;0.20;78.96
69436;SHT31;56625;54.322;18.582;2023-04-06T05:25:58;0.28;78.93
69436;SHT31;56625;54.322;18.582;2023-04-06T05:28:26;0.34;78.81
69436;SHT31;56625;54.322;18.582;2023-04-06T05:30:54;0.39;78.62
69436;SHT31;56625;54.322;18.582;2023-04-06T05:33:22;0.41;78.56
69436;SHT31;56625;54.322;18.582;2023-04-06T05:35:51;0.44;78.51
69436;SHT31;56625;54.322;18.582;2023-04-06T05:38:18;0.55;78.59
69436;SHT31;56625;54.322;18.582;2023-04-06T05:40:47;0.66;78.38
69436;SHT31;56625;54.322;18.582;2023-04-06T05:43:15;0.74;78.12
69436;SHT31;56625;54.322;18.582;2023-04-06T05:45:45;0.83;78.01
69436;SHT31;56625;54.322;18.582;2023-04-06T05:48:13;0.94;77.88
69436;SHT31;56625;54.322;18.582;2023-04-06T05:50:41;1.04;77.76
69436;SHT31;56625;54.322;18.582;2023-04-06T05:53:09;1.17;77.60
69436;SHT31;56625;54.322;18.582;2023-04-06T05:55:37;1.30;77.25
69436;SHT31;56625;54.322;18.582;2023-04-06T05:58:05;1.42;76.90
69436;SHT31;56625;54.322;18.582;2023-04-06T06:00:32;1.56;76.46
69436;SHT31;56625;54.322;18.582;2023-04-06T06:03:00;1.70;75.91
69436;SHT31;56625;54.322;18.582;2023-04-06T06:05:31;1.85;75.34
69436;SHT31;56625;54.322;18.582;2023-04-06T06:07:59;2.02;74.52
69436;SHT31;56625;54.322;18.582;2023-04-06T06:10:29;2.19;73.97
69436;SHT31;56625;54.322;18.582;2023-04-06T06:12:57;2.35;73.14
69436;SHT31;56625;54.322;18.582;2023-04-06T06:15:25;2.53;72.31
69436;SHT31;56625;54.322;18.582;2023-04-06T06:17:53;2.70;71.79
69436;SHT31;56625;54.322;18.582;2023-04-06T06:20:21;2.92;71.87
69436;SHT31;56625;54.322;18.582;2023-04-06T06:22:49;3.17;70.83
69436;SHT31;56625;54.322;18.582;2023-04-06T06:25:17;3.43;69.89
69436;SHT31;56625;54.322;18.582;2023-04-06T06:27:45;3.66;69.08
69436;SHT31;56625;54.322;18.582;2023-04-06T06:30:13;3.84;68.47
69436;SHT31;56625;54.322;18.582;2023-04-06T06:32:42;4.01;67.60
69436;SHT31;56625;54.322;18.582;2023-04-06T06:35:10;4.15;67.19
69436;SHT31;56625;54.322;18.582;2023-04-06T06:37:38;4.33;67.41
69436;SHT31;56625;54.322;18.582;2023-04-06T06:40:06;4.51;66.19
69436;SHT31;56625;54.322;18.582;2023-04-06T06:42:36;4.64;66.45
69436;SHT31;56625;54.322;18.582;2023-04-06T06:45:12;4.78;66.38
69436;SHT31;56625;54.322;18.582;2023-04-06T06:47:40;4.88;65.60
69436;SHT31;56625;54.322;18.582;2023-04-06T06:50:08;4.86;65.19
69436;SHT31;56625;54.322;18.582;2023-04-06T06:52:37;4.88;65.14
69436;SHT31;56625;54.322;18.582;2023-04-06T06:55:05;4.95;65.30
69436;SHT31;56625;54.322;18.582;2023-04-06T06:57:41;5.06;64.63
69436;SHT31;56625;54.322;18.582;2023-04-06T07:00:10;5.16;64.68
69436;SHT31;56625;54.322;18.582;2023-04-06T07:02:40;5.31;64.98
69436;SHT31;56625;54.322;18.582;2023-04-06T07:05:08;5.47;65.07
69436;SHT31;56625;54.322;18.582;2023-04-06T07:07:54;5.62;64.79
69436;SHT31;56625;54.322;18.582;2023-04-06T07:10:23;5.66;63.14
69436;SHT31;56625;54.322;18.582;2023-04-06T07:12:51;5.62;62.82
69436;SHT31;56625;54.322;18.582;2023-04-06T07:15:19;5.73;63.60
69436;SHT31;56625;54.322;18.582;2023-04-06T07:17:47;5.93;63.67
69436;SHT31;56625;54.322;18.582;2023-04-06T07:20:15;6.09;62.48
69436;SHT31;56625;54.322;18.582;2023-04-06T07:22:43;6.22;61.66
69436;SHT31;56625;54.322;18.582;2023-04-06T07:25:15;6.32;60.76
69436;SHT31;56625;54.322;18.582;2023-04-06T07:27:43;6.35;59.77
69436;SHT31;56625;54.322;18.582;2023-04-06T07:30:12;6.32;59.39
69436;SHT31;56625;54.322;18.582;2023-04-06T07:32:40;6.23;59.62
69436;SHT31;56625;54.322;18.582;2023-04-06T07:35:08;5.95;60.31
69436;SHT31;56625;54.322;18.582;2023-04-06T07:37:36;5.71;61.20
69436;SHT31;56625;54.322;18.582;2023-04-06T07:40:04;5.60;61.56
69436;SHT31;56625;54.322;18.582;2023-04-06T07:42:33;5.48;60.92
69436;SHT31;56625;54.322;18.582;2023-04-06T07:45:01;5.42;61.42
69436;SHT31;56625;54.322;18.582;2023-04-06T07:47:30;5.38;61.32
69436;SHT31;56625;54.322;18.582;2023-04-06T07:49:58;5.36;61.59
69436;SHT31;56625;54.322;18.582;2023-04-06T07:52:26;5.40;61.68
69436;SHT31;56625;54.322;18.582;2023-04-06T07:54:54;5.40;61.04
69436;SHT31;56625;54.322;18.582;2023-04-06T07:57:22;5.39;60.87
69436;SHT31;56625;54.322;18.582;2023-04-06T07:59:50;5.34;60.08
69436;SHT31;56625;54.322;18.582;2023-04-06T08:02:18;5.27;60.92
69436;SHT31;56625;54.322;18.582;2023-04-06T08:04:46;5.26;60.85
69436;SHT31;56625;54.322;18.582;2023-04-06T08:07:14;5.39;59.97
69436;SHT31;56625;54.322;18.582;2023-04-06T08:09:42;5.66;58.61
69436;SHT31;56625;54.322;18.582;2023-04-06T08:12:10;5.94;59.36
69436;SHT31;56625;54.322;18.582;2023-04-06T08:14:39;5.93;59.66
69436;SHT31;56625;54.322;18.582;2023-04-06T08:17:09;5.74;59.02
69436;SHT31;56625;54.322;18.582;2023-04-06T08:19:37;5.42;59.73
69436;SHT31;56625;54.322;18.582;2023-04-06T08:22:05;5.18;60.53
69436;SHT31;56625;54.322;18.582;2023-04-06T08:24:33;5.07;60.43
69436;SHT31;56625;54.322;18.582;2023-04-06T08:27:01;4.96;59.00
69436;SHT31;56625;54.322;18.582;2023-04-06T08:29:30;4.94;60.06
69436;SHT31;56625;54.322;18.582;2023-04-06T08:31:57;4.99;60.96
69436;SHT31;56625;54.322;18.582;2023-04-06T08:34:25;5.07;60.47
69436;SHT31;56625;54.322;18.582;2023-04-06T08:36:54;5.23;60.83
69436;SHT31;56625;54.322;18.582;2023-04-06T08:39:22;5.45;60.62
69436;SHT31;56625;54.322;18.582;2023-04-06T08:41:53;5.54;57.96
69436;SHT31;56625;54.322;18.582;2023-04-06T08:44:24;5.67;58.37
69436;SHT31;56625;54.322;18.582;2023-04-06T08:46:52;5.90;57.43
69436;SHT31;56625;54.322;18.582;2023-04-06T08:49:20;6.11;57.45
69436;SHT31;56625;54.322;18.582;2023-04-06T08:51:49;6.23;55.65
69436;SHT31;56625;54.322;18.582;2023-04-06T08:54:25;6.30;56.43
69436;SHT31;56625;54.322;18.582;2023-04-06T08:56:53;6.29;56.90
69436;SHT31;56625;54.322;18.582;2023-04-06T08:59:24;6.09;57.34
69436;SHT31;56625;54.322;18.582;2023-04-06T09:01:53;6.03;57.95
69436;SHT31;56625;54.322;18.582;2023-04-06T09:04:23;6.15;57.88
69436;SHT31;56625;54.322;18.582;2023-04-06T09:06:51;6.26;57.23
69436;SHT31;56625;54.322;18.582;2023-04-06T09:09:19;6.35;56.69
69436;SHT31;56625;54.322;18.582;2023-04-06T09:11:51;6.45;54.65
69436;SHT31;56625;54.322;18.582;2023-04-06T09:14:33;6.53;54.78
69436;SHT31;56625;54.322;18.582;2023-04-06T09:17:05;6.40;53.57
69436;SHT31;56625;54.322;18.582;2023-04-06T09:19:34;6.39;54.35
69436;SHT31;56625;54.322;18.582;2023-04-06T09:22:13;6.22;54.60
69436;SHT31;56625;54.322;18.582;2023-04-06T09:24:43;5.93;55.66
69436;SHT31;56625;54.322;18.582;2023-04-06T09:27:18;5.75;56.05
69436;SHT31;56625;54.322;18.582;2023-04-06T09:30:02;5.69;54.76
69436;SHT31;56625;54.322;18.582;2023-04-06T09:32:53;5.67;55.09
69436;SHT31;56625;54.322;18.582;2023-04-06T09:35:25;5.76;55.94
69436;SHT31;56625;54.322;18.582;2023-04-06T09:37:57;5.95;55.83
69436;SHT31;56625;54.322;18.582;2023-04-06T09:40:25;6.15;55.31
69436;SHT31;56625;54.322;18.582;2023-04-06T09:42:53;6.29;54.47
69436;SHT31;56625;54.322;18.582;2023-04-06T09:45:25;6.33;54.31
69436;SHT31;56625;54.322;18.582;2023-04-06T09:47:57;6.15;53.96
69436;SHT31;56625;54.322;18.582;2023-04-06T09:50:27;5.92;54.71
69436;SHT31;56625;54.322;18.582;2023-04-06T09:52:55;5.88;55.09
69436;SHT31;56625;54.322;18.582;2023-04-06T09:55:30;5.82;54.35
69436;SHT31;56625;54.322;18.582;2023-04-06T09:58:10;5.79;55.56
69436;SHT31;56625;54.322;18.582;2023-04-06T10:01:05;5.89;55.78
69436;SHT31;56625;54.322;18.582;2023-04-06T10:06:35;5.87;56.32
69436;SHT31;56625;54.322;18.582;2023-04-06T10:09:06;5.86;56.97
69436;SHT31;56625;54.322;18.582;2023-04-06T10:11:36;5.88;56.93
69436;SHT31;56625;54.322;18.582;2023-04-06T10:14:05;5.89;57.37
69436;SHT31;56625;54.322;18.582;2023-04-06T10:16:34;5.84;57.72
69436;SHT31;56625;54.322;18.582;2023-04-06T10:19:09;5.88;58.27
69436;SHT31;56625;54.322;18.582;2023-04-06T10:21:53;5.90;57.94
69436;SHT31;56625;54.322;18.582;2023-04-06T10:24:25;6.03;58.14
69436;SHT31;56625;54.322;18.582;2023-04-06T10:27:02;6.16;57.72
69436;SHT31;56625;54.322;18.582;2023-04-06T10:32:36;6.26;57.36
69436;SHT31;56625;54.322;18.582;2023-04-06T10:35:08;6.42;57.25
69436;SHT31;56625;54.322;18.582;2023-04-06T10:37:52;6.41;55.68
69436;SHT31;56625;54.322;18.582;2023-04-06T10:40:29;6.29;56.51
69436;SHT31;56625;54.322;18.582;2023-04-06T10:45:55;6.25;56.74
69436;SHT31;56625;54.322;18.582;2023-04-06T10:48:40;6.26;57.18
69436;SHT31;56625;54.322;18.582;2023-04-06T10:51:12;6.28;56.34
69436;SHT31;56625;54.322;18.582;2023-04-06T10:53:43;6.30;55.97
69436;SHT31;56625;54.322;18.582;2023-04-06T10:56:17;6.32;56.29
69436;SHT31;56625;54.322;18.582;2023-04-06T10:58:51;6.19;56.73
69436;SHT31;56625;54.322;18.582;2023-04-06T11:01:23;6.10;57.22
69436;SHT31;56625;54.322;18.582;2023-04-06T11:03:55;6.15;57.43
69436;SHT31;56625;54.322;18.582;2023-04-06T11:06:28;6.12;57.35
69436;SHT31;56625;54.322;18.582;2023-04-06T11:09:01;6.00;56.35
69436;SHT31;56625;54.322;18.582;2023-04-06T11:11:28;5.80;56.82
69436;SHT31;56625;54.322;18.582;2023-04-06T11:14:00;5.69;57.33
69436;SHT31;56625;54.322;18.582;2023-04-06T11:16:31;5.60;57.71
69436;SHT31;56625;54.322;18.582;2023-04-06T11:19:04;5.54;58.93
69436;SHT31;56625;54.322;18.582;2023-04-06T11:26:50;5.72;58.84
69436;SHT31;56625;54.322;18.582;2023-04-06T11:29:21;5.72;58.56
69436;SHT31;56625;54.322;18.582;2023-04-06T11:31:53;5.76;59.06
69436;SHT31;56625;54.322;18.582;2023-04-06T11:34:35;5.80;58.93
69436;SHT31;56625;54.322;18.582;2023-04-06T11:37:09;5.90;59.14
69436;SHT31;56625;54.322;18.582;2023-04-06T11:39:40;5.95;57.64
69436;SHT31;56625;54.322;18.582;2023-04-06T11:42:21;5.88;56.25
69436;SHT31;56625;54.322;18.582;2023-04-06T11:44:57;5.95;56.99
69436;SHT31;56625;54.322;18.582;2023-04-06T11:47:28;6.07;56.81
69436;SHT31;56625;54.322;18.582;2023-04-06T11:50:08;6.28;56.31
69436;SHT31;56625;54.322;18.582;2023-04-06T11:52:40;6.37;54.22
69436;SHT31;56625;54.322;18.582;2023-04-06T11:55:10;6.23;51.74
69436;SHT31;56625;54.322;18.582;2023-04-06T11:57:43;6.20;52.33
69436;SHT31;56625;54.322;18.582;2023-04-06T12:00:12;6.10;52.90
69436;SHT31;56625;54.322;18.582;2023-04-06T12:02:44;6.05;53.87
69436;SHT31;56625;54.322;18.582;2023-04-06T12:05:14;6.09;55.44
69436;SHT31;56625;54.322;18.582;2023-04-06T12:07:42;6.24;54.61
69436;SHT31;56625;54.322;18.582;2023-04-06T12:10:10;6.35;54.68
69436;SHT31;56625;54.322;18.582;2023-04-06T12:12:38;6.47;55.01
69436;SHT31;56625;54.322;18.582;2023-04-06T12:15:06;6.49;53.61
69436;SHT31;56625;54.322;18.582;2023-04-06T12:17:35;6.31;53.89
69436;SHT31;56625;54.322;18.582;2023-04-06T12:20:04;6.12;54.47
69436;SHT31;56625;54.322;18.582;2023-04-06T12:22:51;6.09;54.91
69436;SHT31;56625;54.322;18.582;2023-04-06T12:25:19;5.95;53.96
69436;SHT31;56625;54.322;18.582;2023-04-06T12:27:47;5.88;54.38
69436;SHT31;56625;54.322;18.582;2023-04-06T12:30:15;5.89;55.70
69436;SHT31;56625;54.322;18.582;2023-04-06T12:32:43;6.01;54.98
69436;SHT31;56625;54.322;18.582;2023-04-06T12:35:12;6.13;54.60
69436;SHT31;56625;54.322;18.582;2023-04-06T12:37:43;6.24;55.28
69436;SHT31;56625;54.322;18.582;2023-04-06T12:40:11;6.16;54.30
69436;SHT31;56625;54.322;18.582;2023-04-06T12:42:39;6.07;55.03
69436;SHT31;56625;54.322;18.582;2023-04-06T12:45:08;6.07;55.56
69436;SHT31;56625;54.322;18.582;2023-04-06T12:47:37;6.06;56.83
69436;SHT31;56625;54.322;18.582;2023-04-06T12:50:05;6.07;56.22
69436;SHT31;56625;54.322;18.582;2023-04-06T12:52:34;6.17;56.32
69436;SHT31;56625;54.322;18.582;2023-04-06T12:55:03;6.36;55.29
69436;SHT31;56625;54.322;18.582;2023-04-06T12:57:32;6.50;55.19
69436;SHT31;56625;54.322;18.582;2023-04-06T13:00:02;6.59;55.35
69436;SHT31;56625;54.322;18.582;2023-04-06T13:02:36;6.45;55.10
69436;SHT31;56625;54.322;18.582;2023-04-06T13:05:04;6.12;56.01
69436;SHT31;56625;54.322;18.582;2023-04-06T13:07:33;6.06;56.27
69436;SHT31;56625;54.322;18.582;2023-04-06T13:10:01;6.07;56.34
69436;SHT31;56625;54.322;18.582;2023-04-06T13:12:29;5.98;56.71
69436;SHT31;56625;54.322;18.582;2023-04-06T13:14:57;5.94;56.71
69436;SHT31;56625;54.322;18.582;2023-04-06T13:17:26;5.80;56.57
69436;SHT31;56625;54.322;18.582;2023-04-06T13:19:55;5.70;57.33
69436;SHT31;56625;54.322;18.582;2023-04-06T13:22:27;5.58;57.52
69436;SHT31;56625;54.322;18.582;2023-04-06T13:24:55;5.47;57.86
69436;SHT31;56625;54.322;18.582;2023-04-06T13:27:37;5.34;58.53
69436;SHT31;56625;54.322;18.582;2023-04-06T13:30:06;5.26;58.71
69436;SHT31;56625;54.322;18.582;2023-04-06T13:32:35;5.18;59.08
69436;SHT31;56625;54.322;18.582;2023-04-06T13:35:04;5.08;59.85
69436;SHT31;56625;54.322;18.582;2023-04-06T13:37:34;4.99;59.16
69436;SHT31;56625;54.322;18.582;2023-04-06T13:40:02;4.92;59.97
69436;SHT31;56625;54.322;18.582;2023-04-06T13:42:34;4.86;61.14
69436;SHT31;56625;54.322;18.582;2023-04-06T13:45:03;4.87;61.17
69436;SHT31;56625;54.322;18.582;2023-04-06T13:47:32;4.85;61.22
69436;SHT31;56625;54.322;18.582;2023-04-06T13:50:00;4.82;60.96
69436;SHT31;56625;54.322;18.582;2023-04-06T13:52:28;4.82;61.44
69436;SHT31;56625;54.322;18.582;2023-04-06T13:54:56;4.84;62.01
69436;SHT31;56625;54.322;18.582;2023-04-06T13:57:23;4.83;62.41
69436;SHT31;56625;54.322;18.582;2023-04-06T13:59:52;4.77;61.81
69436;SHT31;56625;54.322;18.582;2023-04-06T14:02:20;4.74;62.15
69436;SHT31;56625;54.322;18.582;2023-04-06T14:04:48;4.80;62.49
69436;SHT31;56625;54.322;18.582;2023-04-06T14:07:16;4.82;62.86
69436;SHT31;56625;54.322;18.582;2023-04-06T14:09:43;4.88;62.69
69436;SHT31;56625;54.322;18.582;2023-04-06T14:12:11;4.90;61.99
69436;SHT31;56625;54.322;18.582;2023-04-06T14:14:39;4.93;62.28
69436;SHT31;56625;54.322;18.582;2023-04-06T14:17:07;4.99;62.45
69436;SHT31;56625;54.322;18.582;2023-04-06T14:19:35;5.01;62.62
69436;SHT31;56625;54.322;18.582;2023-04-06T14:22:03;5.05;62.62
69436;SHT31;56625;54.322;18.582;2023-04-06T14:24:32;5.03;62.81
69436;SHT31;56625;54.322;18.582;2023-04-06T14:27:00;5.00;62.83
69436;SHT31;56625;54.322;18.582;2023-04-06T14:29:28;4.97;63.19
69436;SHT31;56625;54.322;18.582;2023-04-06T14:31:56;4.87;63.40
69436;SHT31;56625;54.322;18.582;2023-04-06T14:34:27;4.72;63.06
69436;SHT31;56625;54.322;18.582;2023-04-06T14:36:55;4.59;64.21
69436;SHT31;56625;54.322;18.582;2023-04-06T14:39:23;4.43;65.04
69436;SHT31;56625;54.322;18.582;2023-04-06T14:41:51;4.32;65.77
69436;SHT31;56625;54.322;18.582;2023-04-06T14:44:19;4.26;65.88
69436;SHT31;56625;54.322;18.582;2023-04-06T14:46:47;4.20;66.26
69436;SHT31;56625;54.322;18.582;2023-04-06T14:49:17;4.16;66.62
69436;SHT31;56625;54.322;18.582;2023-04-06T14:51:45;4.18;66.78
69436;SHT31;56625;54.322;18.582;2023-04-06T14:54:13;4.13;67.30
69436;SHT31;56625;54.322;18.582;2023-04-06T14:56:41;4.01;68.04
69436;SHT31;56625;54.322;18.582;2023-04-06T14:59:10;3.92;68.60
69436;SHT31;56625;54.322;18.582;2023-04-06T15:01:38;3.88;68.98
69436;SHT31;56625;54.322;18.582;2023-04-06T15:04:07;3.84;69.32
69436;SHT31;56625;54.322;18.582;2023-04-06T15:06:35;3.75;69.75
69436;SHT31;56625;54.322;18.582;2023-04-06T15:09:02;3.70;70.06
69436;SHT31;56625;54.322;18.582;2023-04-06T15:11:30;3.68;70.42
69436;SHT31;56625;54.322;18.582;2023-04-06T15:13:59;3.68;70.58
69436;SHT31;56625;54.322;18.582;2023-04-06T15:16:28;3.69;70.30
69436;SHT31;56625;54.322;18.582;2023-04-06T15:19:00;3.68;70.04
69436;SHT31;56625;54.322;18.582;2023-04-06T15:21:29;3.70;70.04
69436;SHT31;56625;54.322;18.582;2023-04-06T15:23:58;3.72;70.00
69436;SHT31;56625;54.322;18.582;2023-04-06T15:26:26;3.74;70.12
69436;SHT31;56625;54.322;18.582;2023-04-06T15:28:54;3.78;69.97
69436;SHT31;56625;54.322;18.582;2023-04-06T15:31:22;3.82;70.01
69436;SHT31;56625;54.322;18.582;2023-04-06T15:34:04;3.85;70.10
69436;SHT31;56625;54.322;18.582;2023-04-06T15:36:35;3.81;70.66
69436;SHT31;56625;54.322;18.582;2023-04-06T15:39:04;3.74;71.16
69436;SHT31;56625;54.322;18.582;2023-04-06T15:41:36;3.64;71.81
69436;SHT31;56625;54.322;18.582;2023-04-06T15:44:04;3.59;72.00
69436;SHT31;56625;54.322;18.582;2023-04-06T15:46:32;3.54;72.45
69436;SHT31;56625;54.322;18.582;2023-04-06T15:49:00;3.54;72.67
69436;SHT31;56625;54.322;18.582;2023-04-06T15:51:28;3.55;72.78
69436;SHT31;56625;54.322;18.582;2023-04-06T15:54:00;3.55;72.95
69436;SHT31;56625;54.322;18.582;2023-04-06T15:56:27;3.51;72.99